Time;durP1;ratioP1;P1;durP2;ratioP2;P2;SDS_P1;SDS_P2;PMS_P1;PMS_P2;Temp;Humidity;BMP_temperature;BMP_pressure;BME280_temperature;BME280_humidity;BME280_pressure;Samples;Min_cycle;Max_cycle;Signal;HPM_P1;HPM_P2
2023/07/17 00:01:47;;;;;;;8.10;7.00;;;;;;;21.57;68.15;99565.74;107579;1254;60530;-40
2023/07/17 00:04:15;;;;;;;8.10;6.90;;;;;;;21.56;68.11;99563.79;107590;1255;73835;-40
2023/07/17 00:06:43;;;;;;;9.70;7.50;;;;;;;21.54;68.04;99568.48;107491;1254;66628;-40
2023/07/17 00:09:11;;;;;;;7.20;6.40;;;;;;;21.52;67.73;99562.63;107361;1258;72710;-40
2023/07/17 00:11:38;;;;;;;8.40;7.20;;;;;;;21.50;67.78;99560.93;107370;1255;61786;-40
2023/07/17 00:14:06;;;;;;;11.70;7.10;;;;;;;21.51;67.58;99554.45;107518;1254;60123;-39
2023/07/17 00:16:33;;;;;;;8.80;6.80;;;;;;;21.51;67.79;99552.23;107451;1254;72576;-39
2023/07/17 00:19:01;;;;;;;7.30;6.60;;;;;;;21.49;67.40;99554.67;107603;1257;67612;-39
2023/07/17 00:21:28;;;;;;;13.90;7.40;;;;;;;21.45;67.38;99554.48;107578;1254;72702;-39
2023/07/17 00:23:57;;;;;;;7.60;6.80;;;;;;;21.43;67.49;99552.35;107543;1258;60214;-40
2023/07/17 00:26:25;;;;;;;7.60;6.80;;;;;;;21.38;67.60;99545.44;107456;1259;60614;-40
2023/07/17 00:28:55;;;;;;;7.90;6.60;;;;;;;21.38;67.74;99545.43;107550;1255;73863;-40
2023/07/17 00:31:22;;;;;;;7.70;6.70;;;;;;;21.41;67.64;99545.85;107615;1254;66418;-40
2023/07/17 00:33:50;;;;;;;8.80;6.80;;;;;;;21.39;67.43;99544.24;107540;1258;72741;-39
2023/07/17 00:36:17;;;;;;;10.20;7.30;;;;;;;21.33;67.43;99542.95;107538;1256;60368;-40
2023/07/17 00:38:45;;;;;;;9.60;7.20;;;;;;;21.31;67.65;99540.08;107396;1257;182912;-40
2023/07/17 00:42:48;;;;;;;10.00;6.80;;;;;;;21.30;67.92;99533.80;104096;1292;600411;-39
2023/07/17 00:45:15;;;;;;;7.50;6.20;;;;;;;21.29;67.78;99533.84;106473;1272;60385;-39
2023/07/17 00:47:43;;;;;;;12.70;7.20;;;;;;;21.33;67.77;99533.66;106578;1272;60049;-39
2023/07/17 00:50:10;;;;;;;8.60;7.00;;;;;;;21.33;67.70;99534.44;106491;1273;72300;-39
2023/07/17 00:52:38;;;;;;;8.50;6.80;;;;;;;21.30;67.66;99531.34;106622;1266;67740;-39
2023/07/17 00:55:08;;;;;;;7.70;6.70;;;;;;;21.29;67.74;99530.90;106579;1267;71455;-39
2023/07/17 00:57:35;;;;;;;9.00;7.10;;;;;;;21.27;67.82;99529.13;106634;1267;156360;-39
2023/07/17 01:00:08;;;;;;;7.50;6.40;;;;;;;21.24;67.73;99528.77;106715;1264;59235;-39
2023/07/17 01:02:39;;;;;;;12.00;7.10;;;;;;;21.23;67.52;99527.08;106776;1264;69927;-39
2023/07/17 01:05:08;;;;;;;8.70;7.00;;;;;;;21.25;67.62;99527.98;106686;1267;67636;-39
2023/07/17 01:07:39;;;;;;;10.40;6.90;;;;;;;21.25;67.60;99531.52;106738;1267;72752;-39
2023/07/17 01:10:08;;;;;;;8.70;7.30;;;;;;;21.22;67.86;99528.13;106786;1266;59983;-40
2023/07/17 01:12:36;;;;;;;11.90;7.10;;;;;;;21.19;67.97;99525.98;106671;1266;59276;-39
2023/07/17 01:15:04;;;;;;;7.70;7.00;;;;;;;21.17;68.08;99525.88;106597;1266;71818;-40
2023/07/17 01:17:32;;;;;;;9.60;6.80;;;;;;;21.13;68.33;99527.29;106746;1266;67722;-39
2023/07/17 01:20:00;;;;;;;8.40;6.90;;;;;;;21.13;68.38;99531.61;106884;1268;72659;-39
2023/07/17 01:22:29;;;;;;;8.60;6.40;;;;;;;21.16;68.41;99526.77;106754;1263;59627;-39
2023/07/17 01:24:57;;;;;;;7.10;6.40;;;;;;;21.16;68.19;99524.30;106861;1261;60074;-39
2023/07/17 01:27:25;;;;;;;8.90;6.90;;;;;;;21.14;68.33;99525.64;106858;1260;73049;-39
2023/07/17 01:29:53;;;;;;;9.30;7.80;;;;;;;21.12;68.23;99527.14;106858;1263;65443;-40
2023/07/17 01:32:21;;;;;;;9.10;7.50;;;;;;;21.10;68.51;99527.03;106810;1266;71470;-39
2023/07/17 01:34:48;;;;;;;10.20;6.80;;;;;;;21.06;68.58;99526.88;106852;1267;60405;-39
2023/07/17 01:37:17;;;;;;;8.80;7.00;;;;;;;21.05;68.56;99529.73;106861;1267;59577;-39
2023/07/17 01:39:45;;;;;;;8.70;6.80;;;;;;;21.08;68.50;99528.66;106843;1267;73047;-39
2023/07/17 01:42:12;;;;;;;8.30;7.00;;;;;;;21.08;68.69;99524.79;106847;1260;67736;-40
2023/07/17 01:44:40;;;;;;;10.00;7.00;;;;;;;21.07;68.94;99525.75;106812;1264;71474;-40
2023/07/17 01:47:08;;;;;;;8.70;7.00;;;;;;;21.04;69.06;99521.80;106855;1263;59881;-40
2023/07/17 01:49:35;;;;;;;10.00;7.20;;;;;;;21.00;69.04;99524.81;106773;1269;59141;-40
2023/07/17 01:52:04;;;;;;;10.30;6.90;;;;;;;20.95;69.17;99522.86;106823;1268;71779;-39
2023/07/17 01:54:32;;;;;;;7.70;6.50;;;;;;;20.95;69.26;99523.55;106846;1263;65320;-39
2023/07/17 01:56:59;;;;;;;9.90;7.10;;;;;;;20.97;69.05;99522.41;106837;1261;72749;-40
2023/07/17 01:59:27;;;;;;;9.70;7.40;;;;;;;20.96;68.93;99523.67;106743;1261;60122;-40
2023/07/17 02:01:55;;;;;;;8.10;7.20;;;;;;;20.95;69.03;99524.17;106858;1263;60032;-39
2023/07/17 02:04:22;;;;;;;9.00;7.50;;;;;;;20.93;68.79;99525.56;106822;1264;73098;-40
2023/07/17 02:06:50;;;;;;;9.10;7.00;;;;;;;20.89;68.67;99526.05;106898;1264;66759;-39
2023/07/17 02:09:17;;;;;;;7.30;6.60;;;;;;;20.84;68.84;99530.16;106863;1264;72697;-39
2023/07/17 02:11:45;;;;;;;9.00;7.20;;;;;;;20.85;68.99;99529.66;106834;1262;61668;-39
2023/07/17 02:14:12;;;;;;;7.90;7.10;;;;;;;20.89;68.88;99531.40;106870;1266;60087;-39
2023/07/17 02:16:40;;;;;;;9.60;7.10;;;;;;;20.89;68.74;99529.52;106838;1267;71766;-39
2023/07/17 02:19:15;;;;;;;11.10;7.80;;;;;;;20.87;68.76;99534.77;106865;1264;67629;-42
2023/07/17 02:21:43;;;;;;;12.30;8.00;;;;;;;20.83;68.92;99535.92;106731;1264;73651;-39
2023/07/17 02:24:11;;;;;;;8.70;7.40;;;;;;;20.79;68.88;99536.70;106803;1262;60504;-38
2023/07/17 02:26:38;;;;;;;9.30;7.40;;;;;;;20.76;69.11;99536.86;107788;1262;59147;-39
2023/07/17 02:29:06;;;;;;;8.00;6.70;;;;;;;20.78;69.07;99539.58;106696;1264;71838;-38
2023/07/17 02:31:33;;;;;;;9.60;7.30;;;;;;;20.82;68.97;99540.43;106799;1263;66284;-38
2023/07/17 02:34:03;;;;;;;;;;;;;;;20.85;68.96;99539.99;106798;1264;71448;-38
2023/07/17 02:36:33;;;;;;;10.50;7.80;;;;;;;20.79;69.31;99539.55;106809;1267;60066;-40
2023/07/17 02:39:00;;;;;;;8.20;7.30;;;;;;;20.73;69.40;99543.69;106809;1266;60152;-40
2023/07/17 02:41:28;;;;;;;11.60;8.00;;;;;;;20.74;69.52;99546.98;106818;1263;71843;-40
2023/07/17 02:43:55;;;;;;;8.70;7.30;;;;;;;20.72;69.65;99549.52;106826;1264;67580;-40
2023/07/17 02:46:23;;;;;;;7.20;6.20;;;;;;;20.74;69.75;99549.79;106785;1263;72718;-40
2023/07/17 02:48:51;;;;;;;9.40;6.30;;;;;;;20.81;70.23;99550.67;106750;1266;60087;-39
2023/07/17 02:51:19;;;;;;;10.40;7.70;;;;;;;20.85;70.29;99551.95;106819;1267;61092;-39
2023/07/17 02:53:47;;;;;;;12.20;7.40;;;;;;;20.87;70.35;99555.61;106731;1264;73031;-39
2023/07/17 02:56:15;;;;;;;11.50;7.50;;;;;;;20.87;70.40;99555.14;106739;1266;67905;-39
2023/07/17 02:58:43;;;;;;;11.00;7.10;;;;;;;20.89;70.38;99554.86;106830;1266;72713;-39
2023/07/17 03:01:11;;;;;;;9.90;7.20;;;;;;;20.93;70.60;99557.77;106808;1267;60465;-39
2023/07/17 03:03:39;;;;;;;8.30;7.00;;;;;;;21.00;70.52;99558.65;106828;1260;59698;-39
2023/07/17 03:06:06;;;;;;;10.00;7.80;;;;;;;21.04;70.56;99560.77;106834;1267;73085;-40
2023/07/17 03:08:35;;;;;;;11.30;7.30;;;;;;;21.07;70.56;99561.35;106923;1266;67911;-39
2023/07/17 03:11:03;;;;;;;9.10;8.00;;;;;;;21.09;70.58;99559.72;106830;1263;71793;-39
2023/07/17 03:13:32;;;;;;;12.90;8.10;;;;;;;21.11;70.84;99564.89;106843;1263;61750;-39
2023/07/17 03:16:00;;;;;;;10.90;8.20;;;;;;;21.16;70.94;99564.58;106824;1266;60075;-40
2023/07/17 03:18:28;;;;;;;11.40;8.30;;;;;;;21.23;70.54;99563.34;106657;1261;71772;-39
2023/07/17 03:20:55;;;;;;;15.80;8.00;;;;;;;21.26;70.33;99565.23;106781;1263;66652;-39
2023/07/17 03:23:23;;;;;;;12.50;8.40;;;;;;;21.28;70.21;99562.52;106670;1266;72686;-39
2023/07/17 03:25:51;;;;;;;11.10;8.70;;;;;;;21.29;70.07;99564.46;106772;1263;60268;-40
2023/07/17 03:28:18;;;;;;;10.30;7.80;;;;;;;21.30;70.01;99567.44;106833;1261;59509;-40
2023/07/17 03:30:47;;;;;;;10.30;7.90;;;;;;;21.33;69.60;99569.35;106756;1266;71842;-40
2023/07/17 03:33:16;;;;;;;12.90;8.30;;;;;;;21.37;69.71;99570.98;106877;1262;66775;-39
2023/07/17 03:35:46;;;;;;;12.80;8.90;;;;;;;21.42;69.72;99567.42;106736;1268;71412;-39
2023/07/17 03:38:13;;;;;;;14.90;9.20;;;;;;;21.44;69.19;99566.59;106890;1266;59621;-39
2023/07/17 03:40:41;;;;;;;11.60;8.90;;;;;;;21.44;68.86;99567.21;106810;1266;59477;-39
2023/07/17 03:43:09;;;;;;;12.50;9.70;;;;;;;21.44;68.75;99568.07;106863;1260;71803;-40
2023/07/17 03:45:36;;;;;;;9.60;8.60;;;;;;;21.45;69.11;99576.10;106734;1266;66327;-40
2023/07/17 03:48:04;;;;;;;13.00;8.10;;;;;;;21.49;68.97;99569.69;106760;1267;71478;-40
2023/07/17 03:50:33;;;;;;;9.90;8.20;;;;;;;21.54;68.75;99573.06;106804;1263;60133;-40
2023/07/17 03:53:00;;;;;;;9.60;7.60;;;;;;;21.57;68.52;99570.77;106859;1264;59523;-40
2023/07/17 03:55:28;;;;;;;9.60;8.10;;;;;;;21.64;68.39;99573.23;106822;1261;73097;-40
2023/07/17 03:57:55;;;;;;;11.30;8.30;;;;;;;21.68;68.17;99569.19;106825;1269;67750;-40
2023/07/17 04:00:23;;;;;;;13.50;8.70;;;;;;;21.73;68.28;99565.52;106824;1267;71145;-40
2023/07/17 04:02:50;;;;;;;13.10;8.10;;;;;;;21.79;68.58;99563.80;106826;1263;61692;-40
2023/07/17 04:05:28;;;;;;;9.90;7.20;;;;;;;21.88;68.28;99563.98;106839;1263;59615;-40
2023/07/17 04:07:57;;;;;;;11.70;7.80;;;;;;;22.00;67.70;99562.23;106887;1269;71839;-40
2023/07/17 04:10:27;;;;;;;8.50;7.30;;;;;;;22.06;66.94;99563.27;106844;1264;67907;-40
2023/07/17 04:12:54;;;;;;;11.20;7.40;;;;;;;22.14;66.47;99565.52;106822;1266;72750;-40
2023/07/17 04:15:23;;;;;;;11.50;7.50;;;;;;;22.21;66.38;99561.89;106890;1266;60151;-40
2023/07/17 04:17:50;;;;;;;10.20;7.50;;;;;;;22.28;65.99;99561.01;106771;1266;60022;-40
2023/07/17 04:20:19;;;;;;;8.50;7.10;;;;;;;22.34;66.09;99564.00;106713;1267;71871;-40
2023/07/17 04:22:48;;;;;;;7.60;6.40;;;;;;;22.39;65.70;99566.07;106677;1266;66431;-39
2023/07/17 04:25:17;;;;;;;11.50;6.40;;;;;;;22.46;65.30;99567.55;106954;1263;72741;-40
2023/07/17 04:27:45;;;;;;;8.30;6.50;;;;;;;22.53;65.03;99567.04;106984;1261;59627;-38
2023/07/17 04:30:13;;;;;;;7.60;6.80;;;;;;;22.60;65.07;99565.98;107070;1257;59519;-39
2023/07/17 04:32:41;;;;;;;8.40;7.00;;;;;;;22.66;65.14;99568.27;107065;1259;71813;-38
2023/07/17 04:35:10;;;;;;;9.20;7.00;;;;;;;22.72;65.11;99565.38;107010;1257;66622;-39
2023/07/17 04:37:38;;;;;;;11.30;7.60;;;;;;;22.76;64.87;99563.20;107036;1262;70934;-38
2023/07/17 04:40:06;;;;;;;7.60;6.80;;;;;;;22.79;65.01;99564.54;106982;1263;61338;-39
2023/07/17 04:42:34;;;;;;;8.40;7.40;;;;;;;22.85;64.57;99562.81;107117;1258;60021;-40
2023/07/17 04:45:02;;;;;;;11.00;8.40;;;;;;;22.92;64.74;99558.96;106934;1257;73576;-40
2023/07/17 04:47:31;;;;;;;11.00;9.70;;;;;;;23.00;65.04;99561.52;106988;1263;67696;-38
2023/07/17 04:49:59;;;;;;;12.00;10.60;;;;;;;23.07;65.23;99560.52;107048;1263;71391;-39
2023/07/17 04:52:27;;;;;;;12.80;11.40;;;;;;;23.13;65.29;99557.77;107215;1258;60604;-38
2023/07/17 04:54:55;;;;;;;16.30;12.50;;;;;;;23.19;65.23;99554.87;106976;1257;60329;-38
2023/07/17 04:57:22;;;;;;;14.20;12.90;;;;;;;23.27;65.30;99556.23;106954;1257;73914;-39
2023/07/17 04:59:50;;;;;;;14.80;13.30;;;;;;;23.36;65.06;99549.02;107064;1263;68262;-38
2023/07/17 05:02:18;;;;;;;16.90;15.30;;;;;;;23.48;64.83;99551.42;106966;1261;72712;-39
2023/07/17 05:04:46;;;;;;;18.10;16.30;;;;;;;23.57;64.53;99551.21;107128;1259;60437;-41
2023/07/17 05:07:14;;;;;;;17.60;15.90;;;;;;;23.65;64.51;99547.34;106953;1262;60312;-41
2023/07/17 05:09:42;;;;;;;18.40;13.60;;;;;;;23.73;64.43;99548.91;106905;1257;72641;-41
2023/07/17 05:12:09;;;;;;;13.60;12.40;;;;;;;23.79;63.58;99549.88;106957;1258;66448;-41
2023/07/17 05:14:38;;;;;;;13.60;11.70;;;;;;;23.86;63.28;99546.84;107049;1260;72716;-41
2023/07/17 05:17:06;;;;;;;11.60;10.40;;;;;;;23.93;63.09;99547.56;107016;1257;60382;-41
2023/07/17 05:19:33;;;;;;;11.40;9.50;;;;;;;24.04;62.81;99550.46;106968;1263;60302;-41
2023/07/17 05:22:01;;;;;;;9.90;8.70;;;;;;;24.17;62.45;99548.85;107038;1258;72663;-40
2023/07/17 05:24:29;;;;;;;11.60;8.90;;;;;;;24.28;62.50;99551.41;107020;1257;66792;-40
2023/07/17 05:26:56;;;;;;;8.40;7.60;;;;;;;24.37;62.21;99556.23;106985;1257;72728;-40
2023/07/17 05:29:24;;;;;;;8.50;7.40;;;;;;;24.47;61.64;99558.98;106992;1260;60530;-40
2023/07/17 05:31:53;;;;;;;10.10;7.60;;;;;;;24.55;60.06;99561.16;107026;1257;59678;-40
2023/07/17 05:34:20;;;;;;;8.70;7.50;;;;;;;24.61;59.75;99559.38;106966;1263;74293;-40
2023/07/17 05:36:48;;;;;;;9.20;7.00;;;;;;;24.66;59.46;99560.67;106959;1258;67578;-40
2023/07/17 05:39:16;;;;;;;8.80;6.50;;;;;;;24.74;57.94;99563.94;106955;1257;72914;-40
2023/07/17 05:41:43;;;;;;;8.60;7.70;;;;;;;24.79;57.20;99563.17;106982;1261;60543;-40
2023/07/17 05:44:12;;;;;;;8.50;7.10;;;;;;;24.85;56.93;99565.89;107086;1258;60309;-40
2023/07/17 05:46:40;;;;;;;9.10;7.40;;;;;;;24.93;57.19;99565.64;107039;1257;74506;-40
2023/07/17 05:49:08;;;;;;;8.00;7.10;;;;;;;25.00;57.24;99568.69;107228;1263;67771;-40
2023/07/17 05:51:36;;;;;;;9.00;6.80;;;;;;;25.08;57.40;99573.21;107034;1262;71467;-40
2023/07/17 05:54:04;;;;;;;10.20;7.00;;;;;;;25.17;56.82;99572.75;107058;1263;60921;-40
2023/07/17 05:56:33;;;;;;;10.00;7.60;;;;;;;25.27;56.93;99571.02;107188;1262;60258;-40
2023/07/17 05:59:00;;;;;;;9.80;7.10;;;;;;;25.35;57.62;99568.34;107044;1257;73848;-40
2023/07/17 06:01:29;;;;;;;8.60;7.70;;;;;;;25.46;57.30;99569.88;107073;1258;67604;-40
2023/07/17 06:03:57;;;;;;;9.20;8.20;;;;;;;25.56;56.77;99563.35;107171;1260;71259;-39
2023/07/17 06:06:24;;;;;;;8.90;8.10;;;;;;;25.65;56.79;99562.30;106986;1257;60465;-40
2023/07/17 06:08:52;;;;;;;10.60;7.40;;;;;;;25.73;56.62;99559.57;106999;1257;60422;-39
2023/07/17 06:11:19;;;;;;;9.20;7.00;;;;;;;25.82;55.97;99560.34;106953;1257;73864;-39
2023/07/17 06:13:47;;;;;;;8.50;6.10;;;;;;;25.90;55.25;99562.30;106941;1257;67556;-40
2023/07/17 06:16:14;;;;;;;7.60;6.30;;;;;;;25.97;54.68;99557.42;106956;1262;72769;-39
2023/07/17 06:18:42;;;;;;;8.00;6.10;;;;;;;26.04;54.25;99559.36;106991;1260;60440;-40
2023/07/17 06:21:10;;;;;;;12.30;6.50;;;;;;;26.10;53.75;99558.88;107052;1258;60290;-39
2023/07/17 06:23:37;;;;;;;7.20;6.50;;;;;;;26.16;53.21;99558.61;107005;1257;72626;-40
2023/07/17 06:26:05;;;;;;;8.50;6.60;;;;;;;26.23;53.47;99553.41;107002;1257;67598;-40
2023/07/17 06:28:32;;;;;;;7.60;5.90;;;;;;;26.31;53.77;99557.70;107036;1257;72741;-40
2023/07/17 06:31:00;;;;;;;10.00;6.50;;;;;;;26.38;52.17;99558.11;107073;1258;60472;-40
2023/07/17 06:33:27;;;;;;;6.90;6.20;;;;;;;26.45;51.66;99559.60;107223;1262;60396;-40
2023/07/17 06:35:55;;;;;;;8.60;6.40;;;;;;;26.52;51.89;99558.31;107075;1257;73395;-39
2023/07/17 06:38:22;;;;;;;8.70;6.70;;;;;;;26.59;51.27;99558.75;107069;1258;67363;-39
2023/07/17 06:40:53;;;;;;;8.20;5.80;;;;;;;26.65;51.62;99559.09;107061;1260;73138;-39
2023/07/17 06:43:21;;;;;;;7.00;6.20;;;;;;;26.71;51.16;99555.96;107018;1257;59640;-40
2023/07/17 06:45:49;;;;;;;8.10;6.70;;;;;;;26.77;51.32;99554.27;106998;1257;60452;-39
2023/07/17 06:48:16;;;;;;;7.90;6.50;;;;;;;26.84;51.33;99556.73;106944;1262;71954;-39
2023/07/17 06:50:45;;;;;;;8.40;6.60;;;;;;;26.92;51.10;99559.52;107008;1258;67615;-39
2023/07/17 06:53:14;;;;;;;8.90;6.70;;;;;;;27.01;50.53;99557.14;107100;1257;71266;-39
2023/07/17 06:55:42;;;;;;;9.40;6.70;;;;;;;27.08;50.37;99560.46;106977;1261;60408;-39
2023/07/17 06:58:10;;;;;;;7.30;6.50;;;;;;;27.15;50.53;99561.95;107041;1257;60044;-39
2023/07/17 07:00:37;;;;;;;8.20;6.90;;;;;;;27.23;51.26;99558.96;107013;1257;74449;-39
2023/07/17 07:03:05;;;;;;;8.10;6.40;;;;;;;27.31;50.67;99566.10;107197;1263;67697;-38
2023/07/17 07:05:33;;;;;;;8.10;6.30;;;;;;;27.38;50.94;99566.11;107019;1258;72663;-38
2023/07/17 07:08:02;;;;;;;14.60;6.80;;;;;;;27.45;50.83;99565.29;107115;1257;60418;-38
2023/07/17 07:10:30;;;;;;;7.20;6.50;;;;;;;27.54;50.07;99560.42;107081;1257;60389;-39
2023/07/17 07:12:57;;;;;;;8.50;6.10;;;;;;;27.62;49.65;99558.94;106960;1257;72569;-40
2023/07/17 07:15:25;;;;;;;6.80;6.20;;;;;;;27.70;49.39;99557.05;107072;1258;67571;-39
2023/07/17 07:17:53;;;;;;;7.20;6.00;;;;;;;27.79;48.28;99558.11;106955;1263;72688;-40
2023/07/17 07:20:21;;;;;;;10.20;6.40;;;;;;;27.86;48.06;99559.75;107072;1257;60204;-39
2023/07/17 07:22:48;;;;;;;10.70;6.90;;;;;;;27.94;47.86;99555.94;107076;1257;60336;-39
2023/07/17 07:25:16;;;;;;;7.60;6.10;;;;;;;28.02;48.15;99551.89;107085;1258;73784;-41
2023/07/17 07:27:44;;;;;;;10.20;5.90;;;;;;;28.12;49.18;99554.33;107049;1257;68069;-40
2023/07/17 07:30:11;;;;;;;8.00;6.10;;;;;;;28.24;47.93;99553.30;107023;1258;72774;-40
2023/07/17 07:32:40;;;;;;;6.20;5.60;;;;;;;28.33;47.25;99547.66;107064;1257;60299;-40
2023/07/17 07:35:08;;;;;;;6.50;5.90;;;;;;;28.41;47.30;99548.54;107078;1257;60033;-40
2023/07/17 07:37:36;;;;;;;6.70;6.00;;;;;;;28.49;46.67;99547.88;107099;1257;72567;-40
2023/07/17 07:40:06;;;;;;;7.30;5.60;;;;;;;28.58;46.24;99547.50;107169;1258;67560;-40
2023/07/17 07:42:33;;;;;;;7.90;6.00;;;;;;;28.66;46.32;99546.81;107174;1257;72699;-40
2023/07/17 07:45:01;;;;;;;8.00;6.40;;;;;;;28.75;45.97;99548.53;107164;1257;60415;-40
2023/07/17 07:47:30;;;;;;;9.70;6.90;;;;;;;28.84;45.51;99549.61;107065;1257;59224;-41
2023/07/17 07:49:59;;;;;;;8.60;6.80;;;;;;;28.93;45.40;99548.55;107112;1263;72722;-40
2023/07/17 07:52:27;;;;;;;8.20;6.70;;;;;;;29.02;45.70;99549.63;107216;1256;66436;-39
2023/07/17 07:54:55;;;;;;;9.90;7.00;;;;;;;29.11;45.14;99551.71;107199;1262;71868;-39
2023/07/17 07:57:26;;;;;;;8.90;7.20;;;;;;;29.16;43.64;99552.96;107280;1257;60325;-41
2023/07/17 07:59:54;;;;;;;8.10;6.90;;;;;;;29.18;43.89;99553.56;107070;1257;59776;-40
2023/07/17 08:02:23;;;;;;;9.80;6.60;;;;;;;29.24;43.90;99550.77;107073;1257;72574;-40
2023/07/17 08:04:51;;;;;;;10.00;6.20;;;;;;;29.30;44.07;99550.50;107104;1263;67617;-40
2023/07/17 08:07:20;;;;;;;8.20;6.50;;;;;;;29.38;43.64;99549.24;107096;1257;73144;-39
2023/07/17 08:09:48;;;;;;;13.10;6.60;;;;;;;29.44;43.78;99547.77;107015;1259;60552;-39
2023/07/17 08:12:17;;;;;;;8.40;6.10;;;;;;;29.54;43.69;99544.89;107025;1256;59256;-40
2023/07/17 08:14:45;;;;;;;8.50;5.60;;;;;;;29.63;43.47;99544.68;107234;1256;73831;-40
2023/07/17 08:17:12;;;;;;;7.50;6.00;;;;;;;29.74;43.44;99546.30;107036;1262;67891;-40
2023/07/17 08:19:40;;;;;;;6.10;5.40;;;;;;;29.84;43.06;99545.70;106967;1262;72689;-40
2023/07/17 08:22:08;;;;;;;6.90;5.70;;;;;;;29.92;43.24;99546.98;107045;1257;60356;-40
2023/07/17 08:24:36;;;;;;;8.30;6.10;;;;;;;30.03;43.60;99546.69;107115;1257;60424;-37
2023/07/17 08:27:04;;;;;;;6.80;5.70;;;;;;;30.13;43.55;99546.23;106992;1257;73856;-37
2023/07/17 08:29:32;;;;;;;10.00;5.80;;;;;;;30.25;43.18;99547.40;107018;1257;66610;-38
2023/07/17 08:31:59;;;;;;;8.60;5.20;;;;;;;30.32;43.09;99548.81;107013;1257;72691;-38
2023/07/17 08:34:28;;;;;;;7.80;6.00;;;;;;;30.38;43.09;99547.66;107055;1257;60354;-38
2023/07/17 08:36:56;;;;;;;10.30;5.50;;;;;;;30.46;42.91;99547.02;107034;1257;60517;-38
2023/07/17 08:39:23;;;;;;;5.90;5.30;;;;;;;30.56;42.81;99543.56;107124;1257;72560;-39
2023/07/17 08:41:51;;;;;;;7.30;5.50;;;;;;;30.67;42.98;99544.66;107089;1257;67760;-39
2023/07/17 08:44:18;;;;;;;7.70;5.00;;;;;;;30.78;41.69;99542.55;107056;1257;70602;-39
2023/07/17 08:46:47;;;;;;;6.70;5.60;;;;;;;30.85;40.49;99542.41;106984;1257;60429;-39
2023/07/17 08:49:16;;;;;;;5.90;4.80;;;;;;;30.94;40.31;99543.21;107120;1257;60435;-39
2023/07/17 08:51:46;;;;;;;10.20;5.60;;;;;;;31.05;41.02;99540.80;106921;1257;73890;-38
2023/07/17 08:54:15;;;;;;;8.50;5.20;;;;;;;31.14;41.64;99543.08;107087;1263;67614;-39
2023/07/17 08:56:58;;;;;;;6.60;5.30;;;;;;;31.16;40.55;99539.68;107052;1257;73161;-39
2023/07/17 08:59:26;;;;;;;11.30;6.00;;;;;;;31.16;40.09;99541.46;107065;1257;60511;-38
2023/07/17 09:01:54;;;;;;;7.80;5.40;;;;;;;31.22;40.02;99540.80;107128;1258;60316;-39
2023/07/17 09:04:22;;;;;;;11.70;6.20;;;;;;;31.28;40.84;99534.08;107102;1257;74328;-39
2023/07/17 09:06:52;;;;;;;5.60;5.00;;;;;;;31.34;41.28;99536.61;107136;1258;67570;-39
2023/07/17 09:09:21;;;;;;;5.60;4.80;;;;;;;31.41;41.57;99529.08;107566;1257;72711;-39
2023/07/17 09:12:11;;;;;;;9.30;5.30;;;;;;;31.49;41.36;99527.66;107092;1258;60332;-39
2023/07/17 09:14:39;;;;;;;6.90;5.20;;;;;;;31.56;40.52;99529.02;108213;1257;58561;-40
2023/07/17 09:17:08;;;;;;;8.30;5.00;;;;;;;31.59;40.08;99529.14;107159;1258;73853;-39
2023/07/17 09:19:35;;;;;;;8.00;5.50;;;;;;;31.63;38.75;99525.29;107107;1260;67719;-39
2023/07/17 09:22:04;;;;;;;8.10;5.00;;;;;;;31.63;38.99;99524.07;107089;1260;72667;-39
2023/07/17 09:24:33;;;;;;;7.10;5.40;;;;;;;31.69;38.96;99521.30;107136;1260;60543;-39
2023/07/17 09:27:04;;;;;;;8.30;5.30;;;;;;;31.78;39.13;99521.10;107250;1258;60271;-39
2023/07/17 09:29:32;;;;;;;6.20;5.20;;;;;;;31.85;40.27;99522.73;107057;1258;73939;-39
2023/07/17 09:32:18;;;;;;;6.20;4.70;;;;;;;31.94;40.27;99524.77;107078;1257;66314;-39
2023/07/17 09:34:51;;;;;;;6.00;4.90;;;;;;;32.08;39.51;99521.44;107130;1258;72671;-39
2023/07/17 09:37:18;;;;;;;9.10;4.90;;;;;;;32.17;39.43;99520.77;107133;1257;60341;-39
2023/07/17 09:39:50;;;;;;;7.90;4.90;;;;;;;32.22;37.54;99519.79;107093;1258;60441;-39
2023/07/17 09:42:23;;;;;;;6.80;4.90;;;;;;;32.18;38.11;99517.02;107102;1257;74365;-39
2023/07/17 09:44:51;;;;;;;8.20;5.20;;;;;;;32.06;38.45;99520.55;107031;1258;66764;-39
2023/07/17 09:47:19;;;;;;;6.80;5.00;;;;;;;31.94;38.29;99519.52;106976;1259;72664;-39
2023/07/17 09:49:47;;;;;;;6.60;4.70;;;;;;;31.82;38.80;99519.09;107051;1262;60420;-39
2023/07/17 09:52:15;;;;;;;5.90;4.60;;;;;;;31.72;38.07;99520.05;107163;1257;60200;-39
2023/07/17 09:54:44;;;;;;;8.60;5.10;;;;;;;31.65;37.91;99519.09;107016;1257;73840;-39
2023/07/17 09:57:18;;;;;;;6.80;4.50;;;;;;;31.63;37.66;99518.92;107270;1253;67631;-39
2023/07/17 09:59:46;;;;;;;8.50;4.80;;;;;;;31.66;37.78;99519.45;107248;1256;71360;-39
2023/07/17 10:02:16;;;;;;;8.70;5.30;;;;;;;31.69;37.37;99518.77;107250;1254;60399;-39
2023/07/17 10:04:55;;;;;;;9.10;4.50;;;;;;;31.69;37.34;99519.94;107385;1254;60402;-39
2023/07/17 10:07:22;;;;;;;8.40;4.40;;;;;;;31.68;38.01;99520.02;107364;1254;73897;-39
2023/07/17 10:09:50;;;;;;;7.70;4.90;;;;;;;31.67;38.36;99517.32;107328;1254;66429;-39
2023/07/17 10:12:17;;;;;;;5.50;5.00;;;;;;;31.70;38.49;99518.20;107335;1256;72070;-39
2023/07/17 10:14:46;;;;;;;9.00;4.90;;;;;;;31.70;38.38;99511.53;107179;1257;60428;-39
2023/07/17 10:17:33;;;;;;;11.60;4.70;;;;;;;31.75;37.77;99509.21;107477;1253;60079;-40
2023/07/17 10:20:09;;;;;;;6.80;4.90;;;;;;;31.88;37.87;99500.83;107316;1253;73934;-39
2023/07/17 10:22:43;;;;;;;6.60;4.90;;;;;;;32.07;37.71;99494.91;107393;1259;68055;-39
2023/07/17 10:25:17;;;;;;;8.70;4.80;;;;;;;32.20;36.88;99497.12;107531;1253;72648;-39
2023/07/17 10:27:46;;;;;;;9.80;4.80;;;;;;;32.25;36.43;99493.22;107426;1254;60385;-39
2023/07/17 10:30:35;;;;;;;11.50;4.70;;;;;;;32.25;37.04;99495.25;107401;1253;60434;-39
2023/07/17 10:33:05;;;;;;;6.00;4.80;;;;;;;32.25;37.16;99489.09;107439;1254;73879;-39
2023/07/17 10:35:50;;;;;;;6.80;5.00;;;;;;;32.15;37.28;99487.50;107392;1253;67723;-39
2023/07/17 10:38:22;;;;;;;5.60;4.30;;;;;;;32.06;38.28;99489.98;107438;1256;72664;-39
2023/07/17 10:41:02;;;;;;;9.80;5.00;;;;;;;32.08;38.47;99488.39;107453;1256;60309;-39
2023/07/17 10:43:30;;;;;;;10.30;4.80;;;;;;;32.25;37.86;99484.80;107328;1254;60332;-39
2023/07/17 10:45:58;;;;;;;6.00;4.30;;;;;;;32.45;37.28;99487.00;107203;1253;74059;-39
2023/07/17 10:48:26;;;;;;;5.10;4.50;;;;;;;32.67;36.45;99486.61;107412;1253;68026;-39
2023/07/17 10:50:54;;;;;;;6.70;4.90;;;;;;;32.86;35.57;99486.91;107325;1254;72731;-39
2023/07/17 10:53:22;;;;;;;6.50;4.40;;;;;;;33.04;36.24;99490.34;107428;1258;60138;-39
2023/07/17 10:55:50;;;;;;;5.70;4.60;;;;;;;33.20;34.57;99487.80;107371;1254;60299;-40
2023/07/17 10:58:19;;;;;;;9.30;5.00;;;;;;;33.26;33.87;99485.91;107384;1253;72951;-39
2023/07/17 11:00:47;;;;;;;5.90;4.70;;;;;;;33.31;34.30;99479.77;107397;1254;67556;-39
2023/07/17 11:03:18;;;;;;;8.40;4.90;;;;;;;33.31;34.15;99482.23;107679;1254;71620;-39
2023/07/17 11:05:46;;;;;;;8.50;5.00;;;;;;;33.39;34.75;99481.45;107248;1253;60396;-39
2023/07/17 11:08:13;;;;;;;7.80;5.00;;;;;;;33.57;35.35;99479.94;107207;1253;60276;-40
2023/07/17 11:10:44;;;;;;;7.00;5.00;;;;;;;33.78;34.62;99479.97;107241;1253;72302;-39
2023/07/17 11:13:12;;;;;;;5.50;4.90;;;;;;;34.05;34.39;99474.30;107324;1253;67646;-39
2023/07/17 11:15:40;;;;;;;7.00;4.70;;;;;;;34.32;34.26;99475.02;107349;1254;73210;-40
2023/07/17 11:18:07;;;;;;;4.90;4.40;;;;;;;34.47;33.03;99470.57;107423;1254;60412;-39
2023/07/17 11:20:36;;;;;;;8.10;4.60;;;;;;;34.51;33.75;99472.76;107484;1254;60443;-40
2023/07/17 11:23:03;;;;;;;6.10;4.80;;;;;;;34.46;33.79;99474.88;107414;1254;72625;-39
2023/07/17 11:25:33;;;;;;;7.10;4.60;;;;;;;34.38;33.66;99474.46;107270;1254;67894;-40
2023/07/17 11:28:01;;;;;;;6.10;4.10;;;;;;;34.34;33.02;99465.17;108083;1256;73106;-40
2023/07/17 11:30:30;;;;;;;6.10;4.80;;;;;;;34.30;32.80;99464.11;107399;1257;60191;-40